Time;durP1;ratioP1;P1;durP2;ratioP2;P2;SDS_P1;SDS_P2;PMS_P1;PMS_P2;Temp;Humidity;BMP_temperature;BMP_pressure;BME280_temperature;BME280_humidity;BME280_pressure;Samples;Min_cycle;Max_cycle;Signal;HPM_P1;HPM_P2
2023/11/23 00:01:20;;;;;;;9.10;5.30;;;;;;;-5.43;70.73;100424.70;105924;1254;60517;-80
2023/11/23 00:03:48;;;;;;;8.60;5.60;;;;;;;-5.44;70.97;100432.53;105946;1259;60342;-81
2023/11/23 00:06:16;;;;;;;5.80;4.00;;;;;;;-5.46;71.15;100430.84;105847;1254;72577;-81
2023/11/23 00:08:44;;;;;;;6.10;4.60;;;;;;;-5.49;70.97;100427.31;106005;1259;68711;-82
2023/11/23 00:11:11;;;;;;;6.70;4.60;;;;;;;-5.55;70.78;100431.84;106021;1256;71591;-80
2023/11/23 00:13:39;;;;;;;6.60;4.60;;;;;;;-5.62;70.82;100428.09;106002;1253;60974;-80
2023/11/23 00:16:07;;;;;;;6.10;4.50;;;;;;;-5.65;70.99;100428.18;107352;1253;60332;-77
2023/11/23 00:18:35;;;;;;;5.60;4.00;;;;;;;-5.56;70.91;100423.73;108428;1254;72577;-77
2023/11/23 00:21:02;;;;;;;5.20;3.40;;;;;;;-5.41;70.73;100428.76;106265;1256;69379;-79
2023/11/23 00:23:31;;;;;;;5.60;4.10;;;;;;;-5.38;70.31;100434.02;105894;1254;71423;-81
2023/11/23 00:25:59;;;;;;;6.70;4.20;;;;;;;-5.41;70.41;100432.05;106078;1254;60906;-81
2023/11/23 00:28:26;;;;;;;5.80;4.30;;;;;;;-5.44;70.32;100435.45;105904;1254;60437;-78
2023/11/23 00:30:54;;;;;;;5.20;3.60;;;;;;;-5.49;70.21;100428.37;105814;1254;73906;-79
2023/11/23 00:33:22;;;;;;;5.00;3.70;;;;;;;-5.58;70.01;100414.66;105960;1257;69760;-77
2023/11/23 00:35:49;;;;;;;5.90;3.90;;;;;;;-5.63;70.06;100409.30;106116;1257;72723;-77
2023/11/23 00:38:18;;;;;;;4.80;3.70;;;;;;;-5.67;70.33;100403.05;106104;1254;60613;-78
2023/11/23 00:40:46;;;;;;;6.90;4.00;;;;;;;-5.74;70.18;100402.21;106014;1254;60492;-80
2023/11/23 00:43:15;;;;;;;5.40;3.20;;;;;;;-5.82;70.07;100400.04;106244;1253;74763;-79
2023/11/23 00:45:43;;;;;;;6.20;3.70;;;;;;;-5.87;69.86;100399.01;107772;1258;68850;-76
2023/11/23 00:48:11;;;;;;;5.20;3.80;;;;;;;-5.92;69.53;100394.66;106918;1254;73608;-80
2023/11/23 00:50:39;;;;;;;4.90;3.30;;;;;;;-5.98;69.32;100393.51;106486;1258;60402;-81
2023/11/23 00:53:07;;;;;;;6.40;3.80;;;;;;;-6.02;69.22;100390.20;107375;1254;60619;-80
2023/11/23 00:55:36;;;;;;;4.40;2.90;;;;;;;-5.96;68.73;100388.44;106800;1254;72287;-83
2023/11/23 00:58:04;;;;;;;4.60;3.00;;;;;;;-5.88;68.87;100384.55;107186;1254;69286;-82
2023/11/23 01:00:32;;;;;;;5.20;3.40;;;;;;;-5.90;69.02;100385.13;105869;1261;71481;-80
2023/11/23 01:03:01;;;;;;;5.30;3.40;;;;;;;-5.94;69.11;100380.59;105838;1259;60537;-83
2023/11/23 01:05:29;;;;;;;8.10;3.80;;;;;;;-5.98;69.12;100380.05;105732;1254;60536;-82
2023/11/23 01:07:57;;;;;;;6.20;3.70;;;;;;;-6.01;68.69;100376.02;105909;1254;72646;-81
2023/11/23 01:10:24;;;;;;;7.40;4.30;;;;;;;-6.06;68.56;100376.86;105938;1254;69215;-83
2023/11/23 01:12:54;;;;;;;6.50;3.80;;;;;;;-6.15;68.37;100375.92;105827;1258;70994;-79
2023/11/23 01:15:22;;;;;;;6.20;3.90;;;;;;;-6.24;68.06;100374.83;105841;1254;60514;-74
2023/11/23 01:17:50;;;;;;;7.20;4.60;;;;;;;-6.37;68.05;100368.30;106059;1254;60367;-76
2023/11/23 01:20:19;;;;;;;5.80;3.70;;;;;;;-6.47;68.23;100357.05;105731;1254;73825;-78
2023/11/23 01:22:46;;;;;;;7.50;3.90;;;;;;;-6.56;68.33;100347.14;105987;1258;69105;-78
2023/11/23 01:25:14;;;;;;;6.40;3.70;;;;;;;-6.62;68.42;100342.32;105824;1259;72641;-77
2023/11/23 01:27:41;;;;;;;5.50;3.10;;;;;;;-6.56;68.10;100329.40;105974;1254;60403;-77
2023/11/23 01:30:09;;;;;;;4.00;3.30;;;;;;;-6.44;67.97;100329.05;106092;1254;60906;-77
2023/11/23 01:32:37;;;;;;;6.60;3.80;;;;;;;-6.39;67.62;100328.03;105871;1259;72746;-75
2023/11/23 01:35:06;;;;;;;5.50;4.00;;;;;;;-6.42;67.95;100327.45;105889;1254;69054;-78
2023/11/23 01:37:35;;;;;;;6.70;3.80;;;;;;;-6.46;68.29;100322.21;105883;1258;72769;-80
2023/11/23 01:40:04;;;;;;;5.90;3.40;;;;;;;-6.49;68.48;100332.83;106005;1259;60447;-79
2023/11/23 01:42:31;;;;;;;5.40;3.80;;;;;;;-6.54;68.29;100335.89;105987;1259;60413;-78
2023/11/23 01:44:59;;;;;;;6.20;4.00;;;;;;;-6.60;68.18;100336.40;105973;1259;74021;-78
2023/11/23 01:47:26;;;;;;;4.60;3.40;;;;;;;-6.67;68.25;100340.23;105925;1254;73087;-81
2023/11/23 01:49:54;;;;;;;5.80;3.80;;;;;;;-6.71;68.14;100343.63;106942;1255;71556;-77
2023/11/23 01:52:21;;;;;;;6.40;4.50;;;;;;;-6.78;68.38;100331.93;109118;1254;59232;-77
2023/11/23 01:54:50;;;;;;;6.80;4.00;;;;;;;-6.81;68.44;100331.50;106858;1258;60430;-78
2023/11/23 01:57:18;;;;;;;7.40;5.30;;;;;;;-6.83;68.85;100322.95;106194;1262;73901;-78
2023/11/23 01:59:46;;;;;;;6.60;4.50;;;;;;;-6.87;68.77;100321.17;106079;1254;68874;-77
2023/11/23 02:02:13;;;;;;;6.70;4.20;;;;;;;-6.89;69.10;100325.72;105954;1256;71086;-80
2023/11/23 02:04:41;;;;;;;7.20;4.30;;;;;;;-6.77;69.07;100321.05;106145;1255;60655;-78
2023/11/23 02:07:08;;;;;;;6.20;3.90;;;;;;;-6.66;68.92;100313.16;106160;1256;60768;-77
2023/11/23 02:09:36;;;;;;;6.30;3.80;;;;;;;-6.58;68.88;100307.73;106080;1257;73756;-78
2023/11/23 02:12:06;;;;;;;7.30;4.10;;;;;;;-6.59;69.07;100298.14;105950;1257;68416;-81
2023/11/23 02:14:35;;;;;;;7.70;4.40;;;;;;;-6.62;69.37;100297.35;106787;1254;71362;-80
2023/11/23 02:17:24;;;;;;;6.70;4.50;;;;;;;-6.62;69.55;100295.83;107841;1253;60280;-81
2023/11/23 02:19:52;;;;;;;7.00;4.60;;;;;;;-6.62;69.64;100292.89;107640;1254;60309;-82
2023/11/23 02:22:20;;;;;;;8.50;5.10;;;;;;;-6.63;69.91;100300.46;106583;1259;73061;-81
2023/11/23 02:24:48;;;;;;;7.20;4.70;;;;;;;-6.62;69.89;100297.34;105872;1261;70457;-82
2023/11/23 02:27:15;;;;;;;6.40;4.50;;;;;;;-6.59;69.99;100297.77;107162;1259;72438;-81
2023/11/23 02:29:43;;;;;;;7.10;4.80;;;;;;;-6.58;69.66;100290.00;106089;1254;62224;-80
2023/11/23 02:32:10;;;;;;;7.90;4.80;;;;;;;-6.61;69.44;100287.17;107347;1254;60421;-80
2023/11/23 02:34:38;;;;;;;7.70;5.10;;;;;;;-6.65;69.55;100289.34;107092;1252;73870;-84
2023/11/23 02:37:07;;;;;;;7.70;4.80;;;;;;;-6.68;69.68;100286.87;106981;1254;68813;-80
2023/11/23 02:39:34;;;;;;;7.30;4.60;;;;;;;-6.69;69.75;100280.15;106253;1254;71552;-80
2023/11/23 02:42:01;;;;;;;9.50;5.20;;;;;;;-6.68;69.73;100281.52;106163;1255;60443;-79
2023/11/23 02:44:29;;;;;;;7.20;4.80;;;;;;;-6.59;69.56;100284.67;105908;1259;60383;-81
2023/11/23 02:46:57;;;;;;;7.10;4.30;;;;;;;-6.42;69.38;100280.72;105894;1254;73936;-83
2023/11/23 02:49:24;;;;;;;6.60;4.00;;;;;;;-6.29;69.41;100283.07;106097;1254;70616;-81
2023/11/23 02:51:52;;;;;;;6.10;4.10;;;;;;;-6.28;69.15;100281.86;105954;1254;70079;-80
2023/11/23 02:54:19;;;;;;;7.30;4.70;;;;;;;-6.30;69.41;100281.41;105783;1259;60987;-81
2023/11/23 02:56:47;;;;;;;13.90;9.90;;;;;;;-6.34;69.40;100275.45;105807;1259;60597;-80
2023/11/23 02:59:15;;;;;;;9.90;5.90;;;;;;;-6.39;69.04;100273.23;105780;1259;72987;-79
2023/11/23 03:01:43;;;;;;;6.70;4.60;;;;;;;-6.46;69.14;100271.71;105961;1259;69030;-77
2023/11/23 03:04:10;;;;;;;8.60;5.40;;;;;;;-6.47;69.72;100276.22;106070;1260;71122;-78
2023/11/23 03:06:38;;;;;;;8.00;5.10;;;;;;;-6.44;69.70;100271.67;106936;1258;60411;-82
2023/11/23 03:09:06;;;;;;;8.20;5.30;;;;;;;-6.43;69.65;100272.83;106888;1256;60463;-81
2023/11/23 03:11:34;;;;;;;7.50;5.30;;;;;;;-6.43;69.65;100262.67;106286;1254;72257;-82
2023/11/23 03:14:03;;;;;;;9.40;4.80;;;;;;;-6.45;69.60;100258.05;106131;1259;68856;-82
2023/11/23 03:16:32;;;;;;;7.60;4.90;;;;;;;-6.46;69.54;100263.29;106189;1257;72667;-82
2023/11/23 03:19:00;;;;;;;6.20;4.20;;;;;;;-6.47;69.55;100259.52;106074;1259;60571;-80
2023/11/23 03:21:28;;;;;;;8.60;5.40;;;;;;;-6.50;69.71;100246.01;105915;1259;60344;-80
2023/11/23 03:23:56;;;;;;;11.40;4.90;;;;;;;-6.54;69.67;100246.47;105982;1254;72280;-77
2023/11/23 03:26:24;;;;;;;9.50;5.60;;;;;;;-6.48;69.94;100250.59;108061;1257;69988;-77
2023/11/23 03:28:51;;;;;;;6.50;4.00;;;;;;;-6.28;69.65;100246.33;107055;1257;71852;-80
2023/11/23 03:31:20;;;;;;;6.60;4.30;;;;;;;-6.13;69.33;100241.17;105894;1255;60444;-81
2023/11/23 03:33:48;;;;;;;6.90;4.40;;;;;;;-6.06;69.44;100232.70;105736;1259;60368;-79
2023/11/23 03:36:15;;;;;;;10.10;5.70;;;;;;;-6.03;69.48;100222.94;105838;1256;72589;-79
2023/11/23 03:38:43;;;;;;;10.20;5.50;;;;;;;-6.05;69.21;100209.57;105898;1264;69077;-79
2023/11/23 03:41:11;;;;;;;8.30;5.10;;;;;;;-6.11;69.17;100206.80;105912;1256;73557;-81
2023/11/23 03:43:38;;;;;;;8.30;5.80;;;;;;;-6.16;69.11;100189.37;106029;1254;60446;-79
2023/11/23 03:46:05;;;;;;;9.20;5.30;;;;;;;-6.22;69.07;100177.00;105825;1254;61105;-81
2023/11/23 03:48:33;;;;;;;9.10;5.70;;;;;;;-6.29;69.04;100167.92;106051;1257;73920;-79
2023/11/23 03:51:02;;;;;;;10.60;6.60;;;;;;;-6.37;68.97;100167.33;106073;1256;68825;-80
2023/11/23 03:53:30;;;;;;;11.80;7.50;;;;;;;-6.44;69.18;100170.83;105868;1255;72945;-80
2023/11/23 03:55:57;;;;;;;10.60;7.30;;;;;;;-6.51;69.21;100169.66;105725;1254;60351;-79
2023/11/23 03:58:25;;;;;;;11.40;7.40;;;;;;;-6.59;69.72;100164.21;105628;1259;60428;-79
2023/11/23 04:00:52;;;;;;;10.20;6.80;;;;;;;-6.63;69.72;100160.42;105918;1255;74232;-78
2023/11/23 04:03:20;;;;;;;10.30;6.30;;;;;;;-6.65;70.14;100153.59;105749;1256;70118;-77
2023/11/23 04:05:49;;;;;;;9.50;5.80;;;;;;;-6.59;69.79;100148.91;105845;1260;72482;-78
2023/11/23 04:08:16;;;;;;;12.60;7.10;;;;;;;-6.45;69.78;100143.10;106471;1258;60565;-86
2023/11/23 04:10:44;;;;;;;7.60;4.40;;;;;;;-6.33;69.90;100142.36;106737;1255;60537;-84
2023/11/23 04:13:13;;;;;;;11.20;6.50;;;;;;;-6.27;69.81;100136.13;108602;1259;75158;-83
2023/11/23 04:15:40;;;;;;;11.70;6.40;;;;;;;-6.32;69.83;100129.23;108587;1254;69045;-81
2023/11/23 04:18:08;;;;;;;44.40;21.50;;;;;;;-6.35;70.00;100130.71;107165;1259;72644;-77
2023/11/23 04:20:35;;;;;;;9.70;5.40;;;;;;;-6.39;69.71;100125.69;105928;1254;60580;-77
2023/11/23 04:23:03;;;;;;;11.90;6.50;;;;;;;-6.42;69.87;100131.64;105979;1257;60629;-81
2023/11/23 04:25:30;;;;;;;10.50;6.40;;;;;;;-6.46;70.04;100127.30;106049;1256;73907;-79
2023/11/23 04:27:58;;;;;;;9.60;6.90;;;;;;;-6.50;70.32;100130.17;105943;1259;69310;-80
2023/11/23 04:30:25;;;;;;;11.40;7.30;;;;;;;-6.54;70.47;100125.48;105943;1255;71423;-80
2023/11/23 04:32:53;;;;;;;14.20;6.70;;;;;;;-6.57;70.62;100118.88;105937;1254;60427;-81
2023/11/23 04:35:21;;;;;;;11.90;6.80;;;;;;;-6.59;70.80;100110.98;105760;1260;60577;-82
2023/11/23 04:37:48;;;;;;;11.40;7.00;;;;;;;-6.47;71.06;100112.85;105928;1258;73854;-80
2023/11/23 04:40:16;;;;;;;15.20;9.00;;;;;;;-6.43;71.18;100119.61;105947;1255;69968;-81
2023/11/23 04:42:43;;;;;;;16.70;9.60;;;;;;;-6.47;71.20;100129.21;105856;1260;72665;-79
2023/11/23 04:45:11;;;;;;;16.10;9.10;;;;;;;-6.50;71.97;100123.27;105940;1254;60511;-81
2023/11/23 04:47:38;;;;;;;15.10;8.50;;;;;;;-6.52;72.29;100123.18;106003;1257;60387;-78
2023/11/23 04:50:06;;;;;;;10.90;6.80;;;;;;;-6.54;72.54;100131.16;105802;1257;71829;-78
2023/11/23 04:52:33;;;;;;;19.60;9.10;;;;;;;-6.54;72.61;100126.87;105744;1260;69298;-78
2023/11/23 04:55:02;;;;;;;12.20;7.00;;;;;;;-6.41;72.77;100121.26;105767;1258;72752;-78
2023/11/23 04:57:29;;;;;;;12.70;6.90;;;;;;;-6.30;73.14;100104.70;105844;1255;60488;-79
2023/11/23 04:59:57;;;;;;;11.10;7.30;;;;;;;-6.32;73.22;100108.02;107634;1254;59113;-79
2023/11/23 05:02:24;;;;;;;11.80;7.10;;;;;;;-6.35;73.44;100105.38;109123;1254;73813;-81
2023/11/23 05:04:52;;;;;;;14.00;7.90;;;;;;;-6.36;73.95;100103.17;106174;1258;70113;-81
2023/11/23 05:07:20;;;;;;;13.40;8.70;;;;;;;-6.39;74.33;100090.88;106088;1257;71454;-79
2023/11/23 05:09:47;;;;;;;13.00;8.20;;;;;;;-6.29;74.36;100079.81;105945;1255;61456;-78
2023/11/23 05:12:15;;;;;;;14.80;8.00;;;;;;;-6.16;74.31;100075.21;105708;1260;60354;-81
2023/11/23 05:14:43;;;;;;;12.50;7.50;;;;;;;-6.17;74.58;100068.88;106161;1256;73794;-78
2023/11/23 05:17:10;;;;;;;12.60;8.40;;;;;;;-6.19;74.69;100072.58;105898;1260;69219;-81
2023/11/23 05:19:38;;;;;;;13.20;7.80;;;;;;;-6.23;75.07;100059.61;106081;1254;72997;-80
2023/11/23 05:22:09;;;;;;;12.50;7.10;;;;;;;-6.26;75.17;100047.52;106814;1254;59477;-81
2023/11/23 05:24:37;;;;;;;10.50;6.70;;;;;;;-6.20;75.03;100047.78;107972;1254;60894;-81
2023/11/23 05:27:06;;;;;;;11.10;6.80;;;;;;;-6.06;75.03;100041.25;106890;1259;72828;-82
2023/11/23 05:29:34;;;;;;;13.70;7.60;;;;;;;-6.05;74.75;100042.60;106202;1264;68974;-79
2023/11/23 05:32:02;;;;;;;12.80;7.80;;;;;;;-6.08;74.58;100027.36;106105;1255;71860;-78
2023/11/23 05:34:29;;;;;;;14.50;8.90;;;;;;;-6.10;75.12;100030.57;105965;1259;60526;-79
2023/11/23 05:36:57;;;;;;;18.30;9.40;;;;;;;-6.12;75.18;100025.95;105778;1254;60476;-78
2023/11/23 05:39:24;;;;;;;14.40;9.20;;;;;;;-6.09;75.16;100028.10;106061;1257;73972;-77
2023/11/23 05:41:52;;;;;;;16.70;9.70;;;;;;;-5.96;75.19;100027.58;106010;1258;70132;-82
2023/11/23 05:44:20;;;;;;;25.00;13.10;;;;;;;-5.93;74.93;100023.52;106010;1259;71070;-83
2023/11/23 05:46:47;;;;;;;15.30;8.50;;;;;;;-6.01;74.60;100015.90;106019;1254;60440;-82
2023/11/23 05:49:17;;;;;;;12.10;7.10;;;;;;;-6.08;74.99;100013.04;106143;1257;60496;-78
2023/11/23 05:51:45;;;;;;;10.70;6.80;;;;;;;-6.09;75.06;100015.87;106064;1254;74036;-82
2023/11/23 05:54:12;;;;;;;10.30;6.80;;;;;;;-5.98;75.13;100018.89;106088;1255;70631;-83
2023/11/23 05:56:40;;;;;;;14.40;8.10;;;;;;;-5.95;74.99;100015.66;106063;1258;72672;-82
2023/11/23 05:59:08;;;;;;;12.20;7.90;;;;;;;-5.99;75.08;100011.35;105905;1258;60410;-80
2023/11/23 06:01:36;;;;;;;11.00;6.90;;;;;;;-6.04;75.20;100002.37;105823;1254;228440;-81
2023/11/23 06:05:45;;;;;;;13.20;7.80;;;;;;;-6.01;75.38;99988.48;103328;1292;600423;-83
2023/11/23 06:08:12;;;;;;;11.40;7.10;;;;;;;-5.89;75.00;99988.70;106486;1268;59325;-81
2023/11/23 06:10:40;;;;;;;14.70;8.20;;;;;;;-5.86;74.93;99979.09;105621;1266;59336;-83
2023/11/23 06:13:07;;;;;;;12.60;7.40;;;;;;;-5.90;74.82;99984.75;105452;1267;71402;-81
2023/11/23 06:15:35;;;;;;;12.50;8.20;;;;;;;-5.95;74.97;99972.51;105240;1266;69230;-81
2023/11/23 06:18:03;;;;;;;11.40;7.30;;;;;;;-6.00;75.13;99954.27;105440;1269;72666;-82
2023/11/23 06:20:40;;;;;;;13.70;7.10;;;;;;;-5.82;74.90;99957.70;105337;1270;60259;-82
2023/11/23 06:23:09;;;;;;;13.00;7.60;;;;;;;-5.82;74.93;99945.63;105402;1268;60076;-84
2023/11/23 06:25:36;;;;;;;11.30;6.60;;;;;;;-5.85;75.03;99940.39;105602;1263;70708;-85
2023/11/23 06:28:04;;;;;;;13.40;6.20;;;;;;;-5.88;74.91;99930.20;106694;1263;71190;-85
2023/11/23 06:30:44;;;;;;;10.30;6.80;;;;;;;-5.88;75.13;99927.77;108055;1263;71608;-82
2023/11/23 06:33:14;;;;;;;13.70;7.60;;;;;;;-5.75;74.96;99939.83;108213;1263;60613;-83
2023/11/23 06:35:41;;;;;;;13.40;7.80;;;;;;;-5.66;74.23;99943.14;108620;1267;58827;-84
2023/11/23 06:38:11;;;;;;;14.10;8.30;;;;;;;-5.70;74.58;99945.88;107780;1263;71784;-85
2023/11/23 06:40:39;;;;;;;12.50;8.30;;;;;;;-5.74;74.80;99952.23;107033;1263;68946;-80
2023/11/23 06:43:06;;;;;;;17.20;9.90;;;;;;;-5.76;74.64;99956.45;107110;1263;71432;-83
2023/11/23 06:45:34;;;;;;;20.10;9.20;;;;;;;-5.69;74.60;99942.20;107337;1263;60876;-81
2023/11/23 06:48:02;;;;;;;20.10;11.20;;;;;;;-5.56;74.45;99950.64;106967;1268;61265;-80
2023/11/23 06:50:32;;;;;;;22.40;12.20;;;;;;;-5.58;74.26;99948.46;106471;1266;72465;-84
2023/11/23 06:53:00;;;;;;;20.30;10.70;;;;;;;-5.63;74.24;99948.52;106551;1266;69243;-84
2023/11/23 06:55:29;;;;;;;20.80;11.80;;;;;;;-5.65;74.57;99944.64;106262;1265;72927;-84
2023/11/23 06:57:57;;;;;;;20.10;10.10;;;;;;;-5.66;74.68;99931.73;106135;1265;61050;-84
2023/11/23 07:00:26;;;;;;;13.60;8.30;;;;;;;-5.57;74.75;99918.45;106338;1261;61352;-86
2023/11/23 07:02:58;;;;;;;12.20;8.20;;;;;;;-5.48;74.23;99913.95;106751;1259;70808;-84
2023/11/23 07:05:26;;;;;;;11.20;7.40;;;;;;;-5.53;74.32;99921.52;107273;1260;69078;-84
2023/11/23 07:07:55;;;;;;;12.30;7.90;;;;;;;-5.59;74.27;99910.73;106205;1260;71193;-87
2023/11/23 07:10:22;;;;;;;16.70;8.50;;;;;;;-5.63;74.34;99904.87;105656;1266;59626;-85
2023/11/23 07:12:51;;;;;;;13.40;8.70;;;;;;;-5.58;74.64;99892.73;105636;1259;60022;-84
2023/11/23 07:15:19;;;;;;;14.40;9.00;;;;;;;-5.46;74.04;99895.36;106130;1260;72814;-84
2023/11/23 07:17:47;;;;;;;22.40;14.30;;;;;;;-5.47;73.97;99873.50;105879;1260;69135;-84
2023/11/23 07:20:15;;;;;;;15.80;7.70;;;;;;;-5.51;74.21;99867.46;105767;1259;72750;-85
2023/11/23 07:22:43;;;;;;;12.20;7.90;;;;;;;-5.56;74.03;99865.56;105013;1265;1002664;-84
2023/11/23 07:25:11;;;;;;;10.80;7.50;;;;;;;-5.52;74.09;99837.44;105759;1263;60135;-85
2023/11/23 07:27:38;;;;;;;15.80;9.80;;;;;;;-5.36;73.99;99836.80;105807;1259;73172;-85
2023/11/23 07:30:06;;;;;;;12.40;8.60;;;;;;;-5.33;73.81;99826.11;106768;1258;70148;-84
2023/11/23 07:32:35;;;;;;;13.70;9.10;;;;;;;-5.36;73.63;99806.41;108206;1259;71406;-86
2023/11/23 07:35:04;;;;;;;12.60;8.00;;;;;;;-5.39;74.02;99804.27;107942;1259;59570;-86
2023/11/23 07:37:35;;;;;;;13.70;8.40;;;;;;;-5.36;73.81;99798.65;107323;1253;59259;-85
2023/11/23 07:40:12;;;;;;;13.10;8.80;;;;;;;-5.22;73.59;99782.65;108826;1253;72085;-85
2023/11/23 07:42:42;;;;;;;17.30;9.50;;;;;;;-5.16;73.20;99771.34;108518;1252;69171;-85
2023/11/23 07:45:11;;;;;;;20.60;10.50;;;;;;;-5.17;73.30;99766.92;106444;1257;71753;-86
2023/11/23 07:47:41;;;;;;;19.30;11.70;;;;;;;-5.20;73.36;99757.38;106104;1259;60998;-86
2023/11/23 07:50:15;;;;;;;19.00;10.60;;;;;;;-5.25;73.15;99749.98;106491;1253;62107;-88
2023/11/23 07:52:44;;;;;;;14.80;8.70;;;;;;;-5.16;73.26;99740.97;107598;1261;72072;-84
2023/11/23 07:55:15;;;;;;;12.00;7.50;;;;;;;-5.09;72.71;99743.42;107575;1252;70831;-86
2023/11/23 07:57:48;;;;;;;14.50;9.00;;;;;;;-5.14;72.44;99725.16;107297;1252;71512;-87
2023/11/23 08:00:18;;;;;;;20.90;11.10;;;;;;;-5.18;72.88;99717.72;107702;1253;59964;-87
2023/11/23 08:02:48;;;;;;;18.20;10.90;;;;;;;-5.17;73.18;99726.69;108093;1251;59819;-88
2023/11/23 08:05:17;;;;;;;16.40;10.90;;;;;;;-5.07;73.09;99725.02;108519;1252;71878;-89
2023/11/23 08:07:47;;;;;;;13.00;8.90;;;;;;;-4.88;72.68;99720.69;108016;1253;68736;-87
2023/11/23 08:10:15;;;;;;;17.00;10.20;;;;;;;-4.84;72.17;99712.23;108240;1251;71925;-87
2023/11/23 08:12:43;;;;;;;19.10;10.60;;;;;;;-4.82;72.16;99721.45;108673;1253;59168;-89
2023/11/23 08:15:12;;;;;;;22.90;10.50;;;;;;;-4.78;72.00;99719.02;107792;1253;59677;-86
2023/11/23 08:17:41;;;;;;;19.70;10.80;;;;;;;-4.76;72.10;99719.95;106408;1253;73759;-87
2023/11/23 08:20:26;;;;;;;23.80;11.60;;;;;;;-4.68;71.52;99707.67;106601;1257;68737;-85
2023/11/23 08:22:54;;;;;;;18.40;10.10;;;;;;;-4.51;71.65;99697.68;106867;1251;71075;-88
2023/11/23 08:25:22;;;;;;;16.40;9.50;;;;;;;-4.48;71.15;99707.94;106884;1251;59343;-87
2023/11/23 08:27:50;;;;;;;12.80;7.80;;;;;;;-4.55;71.18;99698.24;107090;1252;59657;-88
2023/11/23 08:30:21;;;;;;;13.70;8.90;;;;;;;-4.63;70.93;99701.39;106967;1254;73011;-88
2023/11/23 08:32:49;;;;;;;14.10;8.30;;;;;;;-4.65;71.17;99693.35;107013;1253;70320;-87
2023/11/23 08:35:17;;;;;;;12.80;7.60;;;;;;;-4.68;71.35;99701.95;106965;1253;70805;-88
2023/11/23 08:37:46;;;;;;;12.60;8.00;;;;;;;-4.64;71.70;99695.02;107419;1253;60673;-89
2023/11/23 08:40:14;;;;;;;14.80;7.70;;;;;;;-4.47;71.30;99686.95;108663;1252;59678;-88
2023/11/23 08:42:43;;;;;;;17.40;8.90;;;;;;;-4.45;70.75;99686.34;109492;1253;71805;-89
2023/11/23 08:45:12;;;;;;;16.20;9.20;;;;;;;-4.46;70.95;99675.84;109447;1251;68726;-88
2023/11/23 09:07:08;;;;;;;16.40;9.80;;;;;;;-4.39;69.82;99613.95;103584;1291;600607;-86
2023/11/23 09:09:36;;;;;;;16.10;10.10;;;;;;;-4.47;70.13;99597.24;106151;1269;59475;-85
2023/11/23 09:12:04;;;;;;;19.90;10.80;;;;;;;-4.53;70.53;99580.96;105526;1267;59262;-85
2023/11/23 09:14:32;;;;;;;15.70;8.70;;;;;;;-4.56;70.70;99580.25;105648;1267;71060;-85
2023/11/23 09:17:16;;;;;;;13.70;8.10;;;;;;;-4.43;70.62;99564.70;105961;1266;70223;-87
2023/11/23 09:19:45;;;;;;;8.80;6.30;;;;;;;-4.40;69.83;99580.82;106718;1264;187739;-84
2023/11/23 09:22:13;;;;;;;11.40;7.60;;;;;;;-4.50;69.90;99563.83;106610;1267;59262;-84
2023/11/23 09:24:41;;;;;;;14.40;9.30;;;;;;;-4.56;71.12;99545.99;106600;1257;59311;-84
2023/11/23 09:27:12;;;;;;;12.50;9.20;;;;;;;-4.58;71.08;99547.81;106309;1258;72031;-86
2023/11/23 09:29:40;;;;;;;15.70;9.90;;;;;;;-4.58;70.96;99547.14;106224;1261;70240;-85
2023/11/23 09:32:08;;;;;;;21.10;13.20;;;;;;;-4.57;70.85;99557.27;106182;1253;72612;-85
2023/11/23 09:34:36;;;;;;;15.70;10.40;;;;;;;-4.44;70.93;99554.23;106107;1254;60893;-84
2023/11/23 09:37:04;;;;;;;17.80;10.50;;;;;;;-4.30;70.51;99546.58;106208;1253;60357;-84
2023/11/23 09:39:34;;;;;;;15.80;9.60;;;;;;;-4.35;70.15;99525.20;106350;1253;71726;-84
2023/11/23 09:42:05;;;;;;;14.00;9.50;;;;;;;-4.41;70.37;99487.33;106292;1253;70554;-84
2023/11/23 09:44:35;;;;;;;15.60;8.70;;;;;;;-4.45;70.40;99477.70;106603;1258;71091;-86
2023/11/23 09:47:03;;;;;;;17.40;10.00;;;;;;;-4.50;70.82;99476.92;109377;1252;61266;-84
2023/11/23 09:49:31;;;;;;;15.40;9.00;;;;;;;-4.52;71.32;99468.03;108165;1252;61178;-84
2023/11/23 09:52:01;;;;;;;15.30;8.20;;;;;;;-4.41;71.30;99441.69;108816;1253;74211;-84
2023/11/23 09:54:32;;;;;;;12.40;8.60;;;;;;;-4.37;71.28;99445.29;108606;1253;69439;-83
2023/11/23 09:57:01;;;;;;;12.90;8.60;;;;;;;-4.44;71.27;99448.92;107706;1253;71062;-84
2023/11/23 09:59:30;;;;;;;10.60;7.30;;;;;;;-4.55;71.27;99429.77;107048;1253;61175;-83
2023/11/23 10:02:03;;;;;;;14.60;8.20;;;;;;;-4.64;71.57;99411.25;108019;1258;60586;-85
2023/11/23 10:04:33;;;;;;;13.30;8.70;;;;;;;-4.69;72.07;99382.16;107203;1253;75081;-85
2023/11/23 10:07:01;;;;;;;15.90;9.00;;;;;;;-4.59;71.67;99373.15;106850;1254;70715;-84
2023/11/23 10:09:33;;;;;;;17.80;10.10;;;;;;;-4.59;71.74;99371.23;107084;1254;73180;-83
2023/11/23 10:12:02;;;;;;;14.10;9.30;;;;;;;-4.64;71.80;99385.13;107587;1255;62235;-84
2023/11/23 10:14:30;;;;;;;14.60;9.20;;;;;;;-4.71;72.07;99398.83;107551;1259;59509;-85
2023/11/23 10:16:59;;;;;;;13.90;9.00;;;;;;;-4.77;71.46;99402.79;107010;1255;72955;-84
2023/11/23 10:19:26;;;;;;;14.70;8.70;;;;;;;-4.78;72.19;99383.79;106917;1258;72381;-84
2023/11/23 10:21:58;;;;;;;14.00;9.10;;;;;;;-4.68;72.52;99351.49;106469;1254;72588;-83
2023/11/23 10:24:27;;;;;;;19.90;10.20;;;;;;;-4.67;72.11;99334.16;106667;1256;59681;-87
2023/11/23 10:26:56;;;;;;;11.60;7.90;;;;;;;-4.72;71.22;99348.25;106139;1254;61294;-86
2023/11/23 10:29:28;;;;;;;17.50;9.20;;;;;;;-4.80;71.55;99329.82;106391;1254;73429;-86
2023/11/23 10:32:01;;;;;;;15.30;8.40;;;;;;;-4.85;71.72;99305.61;106062;1254;69943;-86
2023/11/23 10:34:28;;;;;;;11.00;7.60;;;;;;;-4.82;71.71;99300.05;106089;1255;71614;-86
2023/11/23 10:36:57;;;;;;;11.20;7.50;;;;;;;-4.80;74.94;99308.05;105909;1254;61712;-84
2023/11/23 10:39:27;;;;;;;14.20;8.90;;;;;;;-4.90;77.36;99271.98;106062;1255;60094;-85
2023/11/23 10:41:55;;;;;;;14.80;9.60;;;;;;;-4.91;78.58;99240.74;107064;1254;72829;-86
2023/11/23 10:44:23;;;;;;;12.50;8.20;;;;;;;-4.83;79.70;99248.27;107517;1254;71303;-87
2023/11/23 10:46:53;;;;;;;17.80;10.50;;;;;;;-4.88;76.26;99249.60;107416;1256;73070;-86
2023/11/23 10:49:23;;;;;;;15.50;10.30;;;;;;;-4.93;76.75;99234.00;107368;1254;59746;-87
2023/11/23 10:51:52;;;;;;;18.70;10.60;;;;;;;-4.94;76.94;99227.98;107720;1254;61469;-87
2023/11/23 10:54:19;;;;;;;18.40;12.00;;;;;;;-4.79;75.91;99227.01;108031;1253;72358;-87
2023/11/23 10:56:47;;;;;;;19.20;11.20;;;;;;;-4.77;75.91;99218.41;107849;1254;71188;-87
2023/11/23 10:59:20;;;;;;;18.70;12.60;;;;;;;-4.81;75.05;99222.12;108782;1254;73617;-87
2023/11/23 11:01:52;;;;;;;16.40;10.80;;;;;;;-4.81;75.10;99213.12;109084;1254;58803;-85
2023/11/23 11:04:20;;;;;;;13.90;8.90;;;;;;;-4.69;74.42;99223.66;107001;1254;60618;-83
2023/11/23 11:06:51;;;;;;;20.50;13.40;;;;;;;-4.64;72.33;99207.20;106774;1256;71796;-85
2023/11/23 11:09:19;;;;;;;15.10;9.90;;;;;;;-4.72;72.39;99182.36;107253;1256;68738;-86
2023/11/23 11:11:54;;;;;;;11.90;7.30;;;;;;;-4.77;72.25;99179.55;108031;1254;71407;-85
2023/11/23 11:14:35;;;;;;;15.60;9.50;;;;;;;-4.82;71.90;99153.23;108500;1254;59567;-84
2023/11/23 11:17:06;;;;;;;10.00;6.70;;;;;;;-4.87;75.37;99140.38;107593;1256;60858;-81
2023/11/23 11:19:47;;;;;;;12.30;8.20;;;;;;;-4.81;75.67;99130.34;107634;1254;72364;-85
2023/11/23 11:22:17;;;;;;;20.50;12.20;;;;;;;-4.76;75.58;99116.23;108913;1255;68935;-86
2023/11/23 11:24:45;;;;;;;13.50;9.60;;;;;;;-4.81;74.88;99120.84;107033;1258;73455;-86
2023/11/23 11:27:14;;;;;;;20.50;8.90;;;;;;;-4.87;75.15;99131.05;107196;1254;59481;-86
2023/11/23 11:29:50;;;;;;;17.30;11.00;;;;;;;-4.91;75.70;99118.48;107864;1254;59769;-87
2023/11/23 11:32:20;;;;;;;20.10;12.40;;;;;;;-4.81;74.82;99113.23;106509;1255;75203;-84
2023/11/23 11:34:58;;;;;;;14.20;11.20;;;;;;;-4.84;74.72;99111.34;106743;1254;70338;-84
2023/11/23 11:37:29;;;;;;;16.40;9.70;;;;;;;-4.89;74.95;99107.30;107887;1256;71266;-85
2023/11/23 11:40:00;;;;;;;16.10;9.90;;;;;;;-4.87;74.79;99102.39;107327;1254;62150;-85
2023/11/23 11:42:29;;;;;;;14.00;10.60;;;;;;;-4.73;74.79;99072.02;107491;1260;59556;-86